createdAt,value
2024-04-10T00:01:45.573Z,7.50
2024-04-10T00:04:13.286Z,6.80
2024-04-10T00:06:40.608Z,12.20
2024-04-10T00:09:08.116Z,19.20
2024-04-10T00:11:35.538Z,8.70
2024-04-10T00:14:03.236Z,10.90
2024-04-10T00:16:30.970Z,8.40
2024-04-10T00:18:58.358Z,9.30
2024-04-10T00:21:25.771Z,8.90
2024-04-10T00:23:53.069Z,6.00
2024-04-10T00:26:20.528Z,11.20
2024-04-10T00:28:47.970Z,6.30
2024-04-10T00:31:15.235Z,7.30
2024-04-10T00:33:42.552Z,7.30
2024-04-10T00:36:12.296Z,10.60
2024-04-10T00:38:39.537Z,6.70
2024-04-10T00:41:07.344Z,9.50
2024-04-10T00:43:34.851Z,8.30
2024-04-10T00:46:15.910Z,6.70
2024-04-10T00:48:43.660Z,6.70
2024-04-10T00:51:12.335Z,13.90
2024-04-10T00:53:41.041Z,11.30
2024-04-10T00:56:09.837Z,15.80
2024-04-10T00:58:37.578Z,22.50
2024-04-10T01:01:05.673Z,12.70
2024-04-10T01:03:34.681Z,14.70
2024-04-10T01:06:03.816Z,22.80
2024-04-10T01:08:32.495Z,20.40
2024-04-10T01:11:00.635Z,11.60
2024-04-10T01:13:28.251Z,13.60
2024-04-10T01:15:56.988Z,9.40
2024-04-10T01:18:24.721Z,11.90
2024-04-10T01:20:52.068Z,5.90
2024-04-10T01:23:20.000Z,6.30
2024-04-10T01:25:47.765Z,8.20
2024-04-10T01:28:15.198Z,7.60
2024-04-10T01:30:42.469Z,6.10
2024-04-10T01:33:09.985Z,8.10
2024-04-10T01:35:37.338Z,6.50
2024-04-10T01:38:04.826Z,9.80
2024-04-10T01:40:32.192Z,6.20
2024-04-10T01:42:59.555Z,6.00
2024-04-10T01:45:26.953Z,6.10
2024-04-10T01:47:54.406Z,7.80
2024-04-10T01:50:21.799Z,7.60
2024-04-10T01:52:49.331Z,10.50
2024-04-10T01:55:16.580Z,6.70
2024-04-10T01:57:45.524Z,5.00
2024-04-10T02:00:13.324Z,7.60
2024-04-10T02:02:40.737Z,11.00
2024-04-10T02:05:08.238Z,7.30
2024-04-10T02:07:35.464Z,10.50
2024-04-10T02:10:02.622Z,7.40
2024-04-10T02:12:29.776Z,11.20
2024-04-10T02:14:57.033Z,8.30
2024-04-10T02:17:24.903Z,7.90
2024-04-10T02:19:52.704Z,8.90
2024-04-10T02:22:19.967Z,10.80
2024-04-10T02:24:47.568Z,8.50
2024-04-10T02:27:14.971Z,7.40
2024-04-10T02:29:42.200Z,11.60
2024-04-10T02:32:09.542Z,10.80
2024-04-10T02:34:38.002Z,11.40
2024-04-10T02:37:05.993Z,9.90
2024-04-10T02:39:33.353Z,16.20
2024-04-10T02:42:00.606Z,12.90
2024-04-10T02:44:28.148Z,9.20
2024-04-10T02:46:56.577Z,13.00
2024-04-10T02:49:23.781Z,12.30
2024-04-10T02:51:50.995Z,14.00
2024-04-10T02:54:18.197Z,11.30
2024-04-10T02:56:46.066Z,14.90
2024-04-10T02:59:13.315Z,8.20
2024-04-10T03:01:41.000Z,12.00
2024-04-10T03:04:08.684Z,10.80
2024-04-10T03:06:36.101Z,7.10
2024-04-10T03:09:03.342Z,11.20
2024-04-10T03:11:32.708Z,19.20
2024-04-10T03:14:00.052Z,14.20
2024-04-10T03:16:27.752Z,18.30
2024-04-10T03:18:55.350Z,11.80
2024-04-10T03:21:22.635Z,14.90
2024-04-10T03:23:50.451Z,12.50
2024-04-10T03:26:17.766Z,14.40
2024-04-10T03:28:44.954Z,14.80
2024-04-10T03:31:15.016Z,15.50
2024-04-10T03:33:42.423Z,14.20
2024-04-10T03:36:10.035Z,15.20
2024-04-10T03:38:37.520Z,12.80
2024-04-10T03:41:04.834Z,20.60
2024-04-10T03:43:32.210Z,12.70
2024-04-10T03:46:01.153Z,18.60
2024-04-10T03:48:29.207Z,19.70
2024-04-10T03:51:00.718Z,42.40
2024-04-10T03:53:29.323Z,19.40
2024-04-10T03:55:57.734Z,15.60
2024-04-10T03:58:25.387Z,8.60
2024-04-10T04:00:52.754Z,16.00
2024-04-10T04:03:26.113Z,15.60
2024-04-10T04:05:53.889Z,39.40
2024-04-10T04:08:24.210Z,46.20
2024-04-10T04:10:52.038Z,28.00
2024-04-10T04:13:19.406Z,14.20
2024-04-10T04:15:46.796Z,15.00
2024-04-10T04:18:14.000Z,19.70
2024-04-10T04:20:41.436Z,11.80
2024-04-10T04:23:08.810Z,10.60
2024-04-10T04:25:39.081Z,12.80
2024-04-10T04:28:06.718Z,28.00
2024-04-10T04:30:37.308Z,18.60
2024-04-10T04:33:05.495Z,9.00
2024-04-10T04:35:33.019Z,25.40
2024-04-10T04:38:00.980Z,15.40
2024-04-10T04:40:31.662Z,19.00
2024-04-10T04:43:16.954Z,31.00
2024-04-10T04:45:44.813Z,24.90
2024-04-10T04:48:16.067Z,25.30
2024-04-10T04:50:59.914Z,19.50
2024-04-10T04:53:27.763Z,18.70
2024-04-10T04:55:57.314Z,30.60
2024-04-10T04:58:28.082Z,29.40
2024-04-10T05:00:57.439Z,36.50
2024-04-10T05:03:43.454Z,50.10
2024-04-10T05:06:11.229Z,26.80
2024-04-10T05:08:38.680Z,31.40
2024-04-10T05:11:09.930Z,31.90
2024-04-10T05:13:37.879Z,29.70
2024-04-10T05:16:05.200Z,14.70
2024-04-10T05:18:32.495Z,22.50
2024-04-10T05:21:06.887Z,22.00
2024-04-10T05:23:42.661Z,14.50
2024-04-10T05:26:10.428Z,23.20
2024-04-10T05:28:37.860Z,21.80
2024-04-10T05:31:05.540Z,9.00
2024-04-10T05:33:32.949Z,23.20
2024-04-10T05:36:02.151Z,23.00
2024-04-10T05:38:33.201Z,13.70
2024-04-10T05:41:04.560Z,9.50
2024-04-10T05:43:31.870Z,15.20
2024-04-10T05:46:00.230Z,14.10
2024-04-10T05:48:27.991Z,15.30
2024-04-10T05:50:59.800Z,16.50
2024-04-10T05:53:27.339Z,7.30
2024-04-10T05:55:54.722Z,23.10
2024-04-10T05:58:23.508Z,18.20
2024-04-10T06:00:52.468Z,26.10
2024-04-10T06:03:21.814Z,18.50
2024-04-10T06:05:51.344Z,17.40
2024-04-10T06:08:19.264Z,14.90
2024-04-10T06:10:52.190Z,12.80
2024-04-10T06:13:19.445Z,20.00
2024-04-10T06:15:46.821Z,26.90
2024-04-10T06:18:14.356Z,7.80
2024-04-10T06:20:42.284Z,6.30
2024-04-10T06:23:09.611Z,6.80
2024-04-10T06:25:36.920Z,18.70
2024-04-10T06:28:04.958Z,8.70
2024-04-10T06:30:32.289Z,11.70
2024-04-10T06:32:59.698Z,9.10
2024-04-10T06:35:27.380Z,14.10
2024-04-10T06:38:01.000Z,8.60
2024-04-10T06:40:29.828Z,6.10
2024-04-10T06:42:57.921Z,9.30
2024-04-10T06:45:26.092Z,7.10
2024-04-10T06:47:53.693Z,4.60
2024-04-10T06:50:21.071Z,4.20
2024-04-10T06:52:48.615Z,6.90
2024-04-10T06:55:22.704Z,5.10
2024-04-10T06:57:54.688Z,6.50
2024-04-10T07:00:22.245Z,6.00
2024-04-10T07:02:49.656Z,6.50
2024-04-10T07:05:17.003Z,9.80
2024-04-10T07:07:44.298Z,7.10
2024-04-10T07:10:11.545Z,9.50
2024-04-10T07:12:39.341Z,9.60
2024-04-10T07:15:07.360Z,9.30
2024-04-10T07:17:34.710Z,11.60
2024-04-10T07:20:02.329Z,7.40
2024-04-10T07:22:29.613Z,8.80
2024-04-10T07:24:57.054Z,7.90
2024-04-10T07:27:24.317Z,9.00
2024-04-10T07:29:52.570Z,7.70
2024-04-10T07:32:19.857Z,7.90
2024-04-10T07:34:47.567Z,10.30
2024-04-10T07:37:14.821Z,13.40
2024-04-10T07:39:42.419Z,8.10
2024-04-10T07:42:10.449Z,9.10
2024-04-10T07:44:39.670Z,10.00
2024-04-10T07:47:08.176Z,8.50
2024-04-10T07:49:36.356Z,15.30
2024-04-10T07:52:03.760Z,15.80
2024-04-10T07:54:33.024Z,8.10
2024-04-10T07:57:00.677Z,9.30
2024-04-10T07:59:28.138Z,7.10
2024-04-10T08:01:55.439Z,8.30
2024-04-10T08:04:24.178Z,9.20
2024-04-10T08:06:51.488Z,10.30
2024-04-10T08:09:19.247Z,8.80
2024-04-10T08:11:47.027Z,7.40
2024-04-10T08:14:14.739Z,9.40
2024-04-10T08:16:42.494Z,6.90
2024-04-10T08:19:09.899Z,8.10
2024-04-10T08:21:38.555Z,5.60
2024-04-10T08:24:05.983Z,10.90
2024-04-10T08:26:35.221Z,9.50
2024-04-10T08:29:04.089Z,6.20
2024-04-10T08:31:31.775Z,7.00
2024-04-10T08:33:59.283Z,8.70
2024-04-10T08:36:28.989Z,6.50
2024-04-10T08:38:56.488Z,6.20
2024-04-10T08:41:24.177Z,6.60
2024-04-10T08:43:53.114Z,6.70
2024-04-10T08:46:24.424Z,8.60
2024-04-10T08:48:56.303Z,7.80
2024-04-10T08:51:25.019Z,10.10
2024-04-10T08:53:54.252Z,6.30
2024-04-10T08:56:21.574Z,8.70
2024-04-10T08:58:48.805Z,12.60
2024-04-10T09:01:34.664Z,4.10
2024-04-10T09:04:09.900Z,7.90
2024-04-10T09:06:37.680Z,8.40
2024-04-10T09:09:07.969Z,9.00
2024-04-10T09:11:35.566Z,8.00
2024-04-10T09:14:07.356Z,4.00
2024-04-10T09:16:36.118Z,7.50
2024-04-10T09:19:14.600Z,5.00
2024-04-10T09:21:43.253Z,5.20
2024-04-10T09:24:10.993Z,7.10
2024-04-10T09:26:39.443Z,6.00
2024-04-10T09:29:10.917Z,6.40
2024-04-10T09:31:39.384Z,5.60
2024-04-10T09:34:07.571Z,8.60
2024-04-10T09:36:35.527Z,9.00
2024-04-10T09:39:08.559Z,11.90
2024-04-10T09:44:04.901Z,9.60
2024-04-10T09:46:36.439Z,11.50
2024-04-10T09:52:37.372Z,12.60
2024-04-10T09:55:04.901Z,8.50
2024-04-10T09:57:32.584Z,13.00
2024-04-10T10:00:02.992Z,13.00
2024-04-10T10:02:35.517Z,6.50
2024-04-10T10:05:02.944Z,6.60
2024-04-10T10:07:30.881Z,10.30
2024-04-10T10:10:08.956Z,22.30
2024-04-10T10:12:36.580Z,8.40
2024-04-10T10:15:11.342Z,6.90
2024-04-10T10:20:31.474Z,7.10
2024-04-10T10:23:02.501Z,8.20
2024-04-10T10:25:29.849Z,10.70
2024-04-10T10:28:07.862Z,8.80
2024-04-10T10:30:34.919Z,12.60
2024-04-10T10:33:04.579Z,10.60
2024-04-10T10:35:31.515Z,10.10
2024-04-10T10:37:58.797Z,8.40
2024-04-10T10:40:25.464Z,12.10
2024-04-10T10:43:05.728Z,15.30
2024-04-10T10:45:34.980Z,12.30
2024-04-10T10:48:05.237Z,13.10
2024-04-10T10:50:33.375Z,13.20
2024-04-10T10:53:01.553Z,8.00
2024-04-10T10:55:29.602Z,11.50
2024-04-10T10:58:15.391Z,10.50
2024-04-10T11:00:42.095Z,8.80
2024-04-10T11:03:16.951Z,8.30
2024-04-10T11:05:51.031Z,7.60
2024-04-10T11:08:24.688Z,8.80
2024-04-10T11:10:52.392Z,8.70
2024-04-10T11:13:19.471Z,6.60
2024-04-10T11:15:47.554Z,7.90
2024-04-10T11:18:19.937Z,6.50
2024-04-10T11:20:51.091Z,6.00
2024-04-10T11:23:27.926Z,7.90
2024-04-10T11:26:01.694Z,9.90
2024-04-10T11:28:28.817Z,8.00
2024-04-10T11:31:04.441Z,7.40
2024-04-10T11:33:46.756Z,6.60
2024-04-10T11:36:19.582Z,6.20
2024-04-10T11:38:49.042Z,5.90
2024-04-10T11:41:15.898Z,4.20
2024-04-10T11:43:42.773Z,7.20
2024-04-10T11:46:10.017Z,4.10
2024-04-10T11:48:39.993Z,4.10
2024-04-10T11:51:07.228Z,8.70
2024-04-10T11:53:34.149Z,4.20
2024-04-10T11:56:00.893Z,4.50
2024-04-10T11:58:27.533Z,6.00
2024-04-10T12:00:54.277Z,5.00
2024-04-10T12:03:22.204Z,12.70
2024-04-10T12:05:50.468Z,6.80
2024-04-10T12:08:19.508Z,10.10
2024-04-10T12:10:46.546Z,8.70
2024-04-10T12:13:13.206Z,8.60
2024-04-10T12:15:40.660Z,6.30
2024-04-10T12:18:07.579Z,5.00
2024-04-10T12:20:34.723Z,8.40
2024-04-10T12:23:01.433Z,10.10
2024-04-10T12:25:29.130Z,7.10
2024-04-10T12:27:55.803Z,9.50
2024-04-10T12:30:22.951Z,9.80
2024-04-10T12:32:49.738Z,11.20
2024-04-10T12:35:35.827Z,7.30
2024-04-10T12:38:06.620Z,8.90
2024-04-10T12:40:36.351Z,8.10
2024-04-10T12:43:03.988Z,10.00
2024-04-10T12:45:31.764Z,9.50
2024-04-10T12:47:58.946Z,7.70
2024-04-10T12:50:26.470Z,10.10
2024-04-10T12:52:53.542Z,8.30
2024-04-10T12:55:20.150Z,6.80
2024-04-10T12:57:47.838Z,11.60
2024-04-10T13:00:14.894Z,7.90
2024-04-10T13:02:44.251Z,15.50
2024-04-10T13:05:11.872Z,12.10
2024-04-10T13:07:38.664Z,6.10
2024-04-10T13:10:05.980Z,8.60
2024-04-10T13:12:33.443Z,8.60
2024-04-10T13:15:01.547Z,9.50
2024-04-10T13:17:32.009Z,13.70
2024-04-10T13:20:00.157Z,9.30
2024-04-10T13:22:27.226Z,11.20
2024-04-10T13:24:54.104Z,8.20
2024-04-10T13:27:21.269Z,5.00
2024-04-10T13:29:50.748Z,8.60
2024-04-10T13:32:17.512Z,7.80
2024-04-10T13:34:49.130Z,9.60
2024-04-10T13:37:26.126Z,11.10
2024-04-10T13:39:57.834Z,5.70
2024-04-10T13:42:24.587Z,10.90
2024-04-10T13:44:51.556Z,8.50
2024-04-10T13:47:18.506Z,7.60
2024-04-10T13:49:45.469Z,8.40
2024-04-10T13:52:12.330Z,7.50
2024-04-10T13:54:40.090Z,10.00
2024-04-10T13:57:06.735Z,5.80
2024-04-10T13:59:33.582Z,5.80
2024-04-10T14:02:00.808Z,8.20
2024-04-10T14:04:28.026Z,8.60
2024-04-10T14:06:54.899Z,6.70
2024-04-10T14:09:22.178Z,6.50
2024-04-10T14:11:49.407Z,11.60
2024-04-10T14:14:16.670Z,10.00
2024-04-10T14:16:48.233Z,4.80
2024-04-10T14:19:15.052Z,6.40
2024-04-10T14:21:41.954Z,7.50
2024-04-10T14:24:08.902Z,7.40
2024-04-10T14:26:36.294Z,8.40
2024-04-10T14:29:03.419Z,7.60
2024-04-10T14:31:30.158Z,6.40
2024-04-10T14:33:57.612Z,12.00
2024-04-10T14:37:00.561Z,8.80
2024-04-10T14:39:30.045Z,9.80
2024-04-10T14:41:57.759Z,9.20
2024-04-10T14:44:44.014Z,7.90
2024-04-10T14:47:22.742Z,6.50
2024-04-10T14:49:52.179Z,5.80
2024-04-10T14:52:18.897Z,7.10
2024-04-10T14:55:39.277Z,8.30
2024-04-10T14:58:12.774Z,7.70
2024-04-10T15:00:54.544Z,7.10
2024-04-10T15:06:52.856Z,10.30
2024-04-10T15:09:28.352Z,5.10
2024-04-10T15:11:59.616Z,5.30
2024-04-10T15:14:27.748Z,5.20
2024-04-10T15:17:04.690Z,8.20
2024-04-10T15:26:49.986Z,7.50
2024-04-10T15:29:16.821Z,8.60
2024-04-10T15:31:44.146Z,8.00
2024-04-10T15:34:13.731Z,8.30
2024-04-10T15:36:40.593Z,8.10
2024-04-10T15:39:07.767Z,9.90
2024-04-10T15:41:34.934Z,6.80
2024-04-10T15:44:01.995Z,6.30
2024-04-10T15:46:28.782Z,7.20
2024-04-10T15:48:58.491Z,5.10
2024-04-10T15:51:26.428Z,7.30
2024-04-10T15:53:54.229Z,6.40
2024-04-10T15:56:20.978Z,8.90
2024-04-10T15:58:47.621Z,9.40
2024-04-10T16:01:14.904Z,13.50
2024-04-10T16:03:47.295Z,12.20
2024-04-10T16:06:16.747Z,13.50
2024-04-10T16:08:44.906Z,19.70
2024-04-10T16:11:18.503Z,12.50
2024-04-10T16:13:50.802Z,14.70
2024-04-10T16:16:19.298Z,11.90
2024-04-10T16:18:47.397Z,32.20
2024-04-10T16:21:15.537Z,32.70
2024-04-10T16:23:46.662Z,34.70
2024-04-10T16:26:15.245Z,31.00
2024-04-10T16:28:42.349Z,37.20
2024-04-10T16:31:13.193Z,77.80
2024-04-10T16:33:40.250Z,82.00
2024-04-10T16:36:11.262Z,83.40
2024-04-10T16:38:38.872Z,79.00
2024-04-10T16:41:05.517Z,72.70
2024-04-10T16:43:34.613Z,83.10
2024-04-10T16:46:06.417Z,73.80
2024-04-10T16:48:33.446Z,85.30
2024-04-10T16:51:08.279Z,74.70
2024-04-10T16:53:37.559Z,83.90
2024-04-10T16:56:06.909Z,87.80
2024-04-10T16:58:33.975Z,99.40
2024-04-10T17:01:06.018Z,110.40
2024-04-10T17:03:36.551Z,153.80
2024-04-10T17:06:04.988Z,210.20
2024-04-10T17:08:32.428Z,219.40
2024-04-10T17:10:59.379Z,185.80
2024-04-10T17:13:26.934Z,141.50
2024-04-10T17:15:54.145Z,152.80
2024-04-10T17:18:42.220Z,131.80
2024-04-10T17:21:27.667Z,174.80
2024-04-10T17:23:54.435Z,137.60
2024-04-10T17:26:24.290Z,148.80
2024-04-10T17:28:52.805Z,171.30
2024-04-10T17:31:25.965Z,164.70
2024-04-10T17:33:56.179Z,136.40
2024-04-10T17:36:25.305Z,155.90
2024-04-10T17:38:52.061Z,161.60
2024-04-10T17:41:19.248Z,146.50
2024-04-10T17:43:46.051Z,158.90
2024-04-10T17:46:12.753Z,147.20
2024-04-10T17:48:44.605Z,125.10
2024-04-10T17:51:17.395Z,104.70
2024-04-10T17:53:46.524Z,123.00
2024-04-10T17:56:20.130Z,117.00
2024-04-10T17:58:46.985Z,107.90
2024-04-10T18:01:13.800Z,114.00
2024-04-10T18:03:42.829Z,131.70
2024-04-10T18:06:11.976Z,98.30
2024-04-10T18:08:39.523Z,100.80
2024-04-10T18:11:06.725Z,69.00
2024-04-10T18:13:33.550Z,71.80
2024-04-10T18:16:00.778Z,77.10
2024-04-10T18:18:28.450Z,62.90
2024-04-10T18:21:00.104Z,56.70
2024-04-10T18:23:27.669Z,66.40
2024-04-10T18:26:04.924Z,70.30
2024-04-10T18:28:33.022Z,71.50
2024-04-10T18:31:01.268Z,58.40
2024-04-10T18:33:31.930Z,70.30
2024-04-10T18:36:04.186Z,63.20
2024-04-10T18:38:31.030Z,55.20
2024-04-10T18:40:59.311Z,73.50
2024-04-10T18:43:34.589Z,82.80
2024-04-10T18:46:05.561Z,73.30
2024-04-10T18:48:37.068Z,91.50
2024-04-10T18:51:10.648Z,84.40
2024-04-10T18:53:37.762Z,79.00
2024-04-10T18:56:04.670Z,73.10
2024-04-10T18:58:31.674Z,71.80
2024-04-10T19:00:59.645Z,54.20
2024-04-10T19:03:26.965Z,53.20
2024-04-10T19:05:57.258Z,65.00
2024-04-10T19:08:29.695Z,62.70
2024-04-10T19:10:57.273Z,44.60
2024-04-10T19:13:24.541Z,51.60
2024-04-10T19:15:51.948Z,55.80
2024-04-10T19:18:18.956Z,38.30
2024-04-10T19:20:49.443Z,38.20
2024-04-10T19:23:17.274Z,45.20
2024-04-10T19:25:54.770Z,42.30
2024-04-10T19:28:27.060Z,34.70
2024-04-10T19:30:54.927Z,35.90
2024-04-10T19:33:21.787Z,35.00
2024-04-10T19:35:49.022Z,32.50
2024-04-10T19:38:15.902Z,34.50
2024-04-10T19:40:43.746Z,31.60
2024-04-10T19:43:11.718Z,33.40
2024-04-10T19:45:39.689Z,33.30
2024-04-10T19:48:07.223Z,33.00
2024-04-10T19:50:34.920Z,24.50
2024-04-10T19:53:01.781Z,26.90
2024-04-10T19:55:28.711Z,23.70
2024-04-10T19:57:55.433Z,19.70
2024-04-10T20:00:22.408Z,16.80
2024-04-10T20:02:49.898Z,21.60
2024-04-10T20:05:18.300Z,16.70
2024-04-10T20:07:46.877Z,22.70
2024-04-10T20:10:14.309Z,26.20
2024-04-10T20:12:41.734Z,24.20
2024-04-10T20:15:08.635Z,21.70
2024-04-10T20:17:36.747Z,25.80
2024-04-10T20:20:03.903Z,25.00
2024-04-10T20:22:32.763Z,26.00
2024-04-10T20:25:03.412Z,28.90
2024-04-10T20:27:36.194Z,31.20
2024-04-10T20:30:03.799Z,33.80
2024-04-10T20:32:31.466Z,27.20
2024-04-10T20:34:58.674Z,23.80
2024-04-10T20:37:38.208Z,24.90
2024-04-10T20:40:05.597Z,29.00
2024-04-10T20:42:36.000Z,30.20
2024-04-10T20:45:03.610Z,27.90
2024-04-10T20:47:31.025Z,37.30
2024-04-10T20:49:58.567Z,35.30
2024-04-10T20:52:25.189Z,31.80
2024-04-10T20:54:53.295Z,31.70
2024-04-10T20:57:20.360Z,41.90
2024-04-10T20:59:48.417Z,40.40
2024-04-10T21:02:24.826Z,52.10
2024-04-10T21:04:51.498Z,43.10
2024-04-10T21:07:37.427Z,39.80
2024-04-10T21:10:22.952Z,37.90
2024-04-10T21:13:08.456Z,42.60
2024-04-10T21:15:57.724Z,38.80
2024-04-10T21:18:45.182Z,38.90
2024-04-10T21:21:30.972Z,38.70
2024-04-10T21:24:16.163Z,37.00
2024-04-10T21:27:04.883Z,29.10
2024-04-10T21:29:51.468Z,32.00
2024-04-10T21:32:37.529Z,31.80
2024-04-10T21:35:23.574Z,35.50
2024-04-10T21:38:08.809Z,27.60
2024-04-10T21:40:56.109Z,36.40
2024-04-10T21:43:41.656Z,29.90
2024-04-10T21:46:27.290Z,27.90
2024-04-10T21:49:12.735Z,32.70
2024-04-10T21:51:58.410Z,30.10
2024-04-10T21:54:43.791Z,30.40
2024-04-10T21:57:29.378Z,29.50
2024-04-10T22:00:27.451Z,28.70
2024-04-10T22:03:20.708Z,30.70
2024-04-10T22:06:06.178Z,28.40
2024-04-10T22:08:51.486Z,29.10
2024-04-10T22:11:18.367Z,33.50
2024-04-10T22:13:46.657Z,32.50
2024-04-10T22:16:13.640Z,30.00
2024-04-10T22:18:59.953Z,27.40
2024-04-10T22:21:46.366Z,28.70
2024-04-10T22:24:12.898Z,20.90
2024-04-10T22:26:39.768Z,26.90
2024-04-10T22:29:07.128Z,27.30
2024-04-10T22:31:34.613Z,20.20
2024-04-10T22:37:19.575Z,28.20
2024-04-10T22:39:46.687Z,20.00
2024-04-10T22:42:13.960Z,17.00
2024-04-10T22:44:41.506Z,12.70
2024-04-10T22:47:08.115Z,17.30
2024-04-10T22:49:34.652Z,13.30
2024-04-10T22:52:02.017Z,15.30
2024-04-10T22:54:29.289Z,15.20
2024-04-10T22:56:56.110Z,15.90
2024-04-10T22:59:23.526Z,16.80
2024-04-10T23:01:50.810Z,18.90
2024-04-10T23:04:17.387Z,24.40
2024-04-10T23:07:20.475Z,18.00
2024-04-10T23:09:32.235Z,27.10
2024-04-10T23:11:59.439Z,36.60
2024-04-10T23:14:26.113Z,34.80
2024-04-10T23:16:52.743Z,45.10
2024-04-10T23:19:21.286Z,54.30
2024-04-10T23:21:49.608Z,74.90
2024-04-10T23:24:16.042Z,102.10
2024-04-10T23:26:43.021Z,114.30
2024-04-10T23:29:10.471Z,124.70
2024-04-10T23:31:37.964Z,124.40
2024-04-10T23:34:04.719Z,119.80
2024-04-10T23:36:31.482Z,106.40
2024-04-10T23:38:58.013Z,105.20
2024-04-10T23:41:24.584Z,101.40
2024-04-10T23:43:51.472Z,98.70
2024-04-10T23:46:18.630Z,103.90
2024-04-10T23:48:45.650Z,83.40
2024-04-10T23:51:12.549Z,94.00
2024-04-10T23:53:39.182Z,86.80
2024-04-10T23:56:07.458Z,90.20
2024-04-10T23:58:37.608Z,93.50
